sensor_id;sensor_type;location;lat;lon;timestamp;P1;durP1;ratioP1;P2;durP2;ratioP2
52934;SDS011;38802;50.198;19.796;2023-10-09T00:00:34;12.60;;;8.20;;
52934;SDS011;38802;50.198;19.796;2023-10-09T00:03:28;12.90;;;7.60;;
52934;SDS011;38802;50.198;19.796;2023-10-09T00:05:56;12.20;;;7.80;;
52934;SDS011;38802;50.198;19.796;2023-10-09T00:08:25;13.40;;;8.00;;
52934;SDS011;38802;50.198;19.796;2023-10-09T00:11:00;10.70;;;6.60;;
52934;SDS011;38802;50.198;19.796;2023-10-09T00:13:46;13.70;;;7.40;;
52934;SDS011;38802;50.198;19.796;2023-10-09T00:16:19;16.70;;;7.60;;
52934;SDS011;38802;50.198;19.796;2023-10-09T00:19:02;10.90;;;7.00;;
52934;SDS011;38802;50.198;19.796;2023-10-09T00:21:58;12.70;;;6.70;;
52934;SDS011;38802;50.198;19.796;2023-10-09T00:24:32;10.90;;;6.90;;
52934;SDS011;38802;50.198;19.796;2023-10-09T00:27:01;9.40;;;6.60;;
52934;SDS011;38802;50.198;19.796;2023-10-09T00:29:40;12.10;;;6.70;;
52934;SDS011;38802;50.198;19.796;2023-10-09T00:32:16;9.80;;;6.50;;
52934;SDS011;38802;50.198;19.796;2023-10-09T00:34:45;14.50;;;7.20;;
52934;SDS011;38802;50.198;19.796;2023-10-09T00:37:18;14.60;;;7.10;;
52934;SDS011;38802;50.198;19.796;2023-10-09T00:39:54;10.70;;;6.90;;
52934;SDS011;38802;50.198;19.796;2023-10-09T00:42:25;9.50;;;6.40;;
52934;SDS011;38802;50.198;19.796;2023-10-09T00:44:58;15.20;;;7.00;;
52934;SDS011;38802;50.198;19.796;2023-10-09T00:47:33;9.70;;;6.50;;
52934;SDS011;38802;50.198;19.796;2023-10-09T00:50:03;13.20;;;6.30;;
52934;SDS011;38802;50.198;19.796;2023-10-09T00:52:47;10.40;;;6.90;;
52934;SDS011;38802;50.198;19.796;2023-10-09T00:55:31;13.50;;;6.00;;
52934;SDS011;38802;50.198;19.796;2023-10-09T00:58:23;13.30;;;6.20;;
52934;SDS011;38802;50.198;19.796;2023-10-09T01:00:54;8.90;;;5.70;;
52934;SDS011;38802;50.198;19.796;2023-10-09T01:03:23;14.30;;;5.70;;
52934;SDS011;38802;50.198;19.796;2023-10-09T01:05:56;9.20;;;5.40;;
52934;SDS011;38802;50.198;19.796;2023-10-09T01:08:27;7.60;;;5.10;;
52934;SDS011;38802;50.198;19.796;2023-10-09T01:11:13;7.90;;;5.50;;
52934;SDS011;38802;50.198;19.796;2023-10-09T01:13:49;10.00;;;5.50;;
52934;SDS011;38802;50.198;19.796;2023-10-09T01:16:20;11.70;;;5.00;;
52934;SDS011;38802;50.198;19.796;2023-10-09T01:18:53;11.30;;;5.90;;
52934;SDS011;38802;50.198;19.796;2023-10-09T01:23:56;13.50;;;5.50;;
52934;SDS011;38802;50.198;19.796;2023-10-09T01:26:33;9.10;;;5.80;;
52934;SDS011;38802;50.198;19.796;2023-10-09T01:29:20;7.50;;;5.20;;
52934;SDS011;38802;50.198;19.796;2023-10-09T01:31:51;8.80;;;5.90;;
52934;SDS011;38802;50.198;19.796;2023-10-09T01:34:25;15.60;;;5.80;;
52934;SDS011;38802;50.198;19.796;2023-10-09T01:37:19;11.30;;;6.00;;
52934;SDS011;38802;50.198;19.796;2023-10-09T01:39:57;12.80;;;5.80;;
52934;SDS011;38802;50.198;19.796;2023-10-09T01:42:46;9.70;;;5.30;;
52934;SDS011;38802;50.198;19.796;2023-10-09T01:45:15;5.90;;;5.40;;
52934;SDS011;38802;50.198;19.796;2023-10-09T01:47:44;9.70;;;5.70;;
52934;SDS011;38802;50.198;19.796;2023-10-09T01:50:20;15.20;;;7.40;;
52934;SDS011;38802;50.198;19.796;2023-10-09T01:53:00;12.60;;;6.70;;
52934;SDS011;38802;50.198;19.796;2023-10-09T01:55:30;9.90;;;6.90;;
52934;SDS011;38802;50.198;19.796;2023-10-09T01:58:04;10.80;;;6.70;;
52934;SDS011;38802;50.198;19.796;2023-10-09T02:00:58;12.90;;;6.70;;
52934;SDS011;38802;50.198;19.796;2023-10-09T02:03:33;9.30;;;6.70;;
52934;SDS011;38802;50.198;19.796;2023-10-09T02:06:10;10.90;;;7.10;;
52934;SDS011;38802;50.198;19.796;2023-10-09T02:08:54;14.00;;;8.10;;
52934;SDS011;38802;50.198;19.796;2023-10-09T02:11:24;10.00;;;7.80;;
52934;SDS011;38802;50.198;19.796;2023-10-09T02:14:04;13.30;;;8.60;;
52934;SDS011;38802;50.198;19.796;2023-10-09T02:16:43;12.10;;;8.30;;
52934;SDS011;38802;50.198;19.796;2023-10-09T02:19:11;13.20;;;9.20;;
52934;SDS011;38802;50.198;19.796;2023-10-09T02:22:02;13.70;;;8.20;;
52934;SDS011;38802;50.198;19.796;2023-10-09T02:24:40;8.90;;;8.00;;
52934;SDS011;38802;50.198;19.796;2023-10-09T02:27:25;11.50;;;9.20;;
52934;SDS011;38802;50.198;19.796;2023-10-09T02:30:12;16.90;;;9.80;;
52934;SDS011;38802;50.198;19.796;2023-10-09T02:32:44;13.50;;;8.30;;
52934;SDS011;38802;50.198;19.796;2023-10-09T02:35:12;12.80;;;8.20;;
52934;SDS011;38802;50.198;19.796;2023-10-09T02:37:57;14.70;;;8.70;;
52934;SDS011;38802;50.198;19.796;2023-10-09T02:40:27;12.60;;;8.10;;
52934;SDS011;38802;50.198;19.796;2023-10-09T02:43:00;14.80;;;9.40;;
52934;SDS011;38802;50.198;19.796;2023-10-09T02:45:28;13.90;;;8.10;;
52934;SDS011;38802;50.198;19.796;2023-10-09T02:48:03;12.30;;;7.50;;
52934;SDS011;38802;50.198;19.796;2023-10-09T02:50:39;10.00;;;7.60;;
52934;SDS011;38802;50.198;19.796;2023-10-09T02:53:12;10.90;;;8.60;;
52934;SDS011;38802;50.198;19.796;2023-10-09T02:55:48;17.30;;;8.40;;
52934;SDS011;38802;50.198;19.796;2023-10-09T02:58:30;11.90;;;7.70;;
52934;SDS011;38802;50.198;19.796;2023-10-09T03:01:00;11.10;;;7.10;;
52934;SDS011;38802;50.198;19.796;2023-10-09T03:03:28;11.70;;;7.20;;
52934;SDS011;38802;50.198;19.796;2023-10-09T03:05:57;16.80;;;8.10;;
52934;SDS011;38802;50.198;19.796;2023-10-09T03:08:25;11.90;;;8.20;;
52934;SDS011;38802;50.198;19.796;2023-10-09T03:10:54;10.90;;;7.20;;
52934;SDS011;38802;50.198;19.796;2023-10-09T03:13:24;11.70;;;7.50;;
52934;SDS011;38802;50.198;19.796;2023-10-09T03:15:52;10.70;;;7.30;;
52934;SDS011;38802;50.198;19.796;2023-10-09T03:18:21;11.40;;;7.20;;
52934;SDS011;38802;50.198;19.796;2023-10-09T03:20:49;12.50;;;6.60;;
52934;SDS011;38802;50.198;19.796;2023-10-09T03:23:18;14.80;;;7.30;;
52934;SDS011;38802;50.198;19.796;2023-10-09T03:25:46;13.40;;;7.80;;
52934;SDS011;38802;50.198;19.796;2023-10-09T03:28:14;11.20;;;8.10;;
52934;SDS011;38802;50.198;19.796;2023-10-09T03:30:43;10.60;;;7.70;;
52934;SDS011;38802;50.198;19.796;2023-10-09T03:33:15;11.80;;;7.90;;
52934;SDS011;38802;50.198;19.796;2023-10-09T03:35:43;14.30;;;8.50;;
52934;SDS011;38802;50.198;19.796;2023-10-09T03:38:12;13.60;;;7.20;;
52934;SDS011;38802;50.198;19.796;2023-10-09T03:40:43;9.10;;;7.40;;
52934;SDS011;38802;50.198;19.796;2023-10-09T03:43:12;8.40;;;7.10;;
52934;SDS011;38802;50.198;19.796;2023-10-09T03:45:41;8.50;;;6.80;;
52934;SDS011;38802;50.198;19.796;2023-10-09T03:48:20;12.40;;;6.80;;
52934;SDS011;38802;50.198;19.796;2023-10-09T03:50:50;10.20;;;6.90;;
52934;SDS011;38802;50.198;19.796;2023-10-09T03:53:29;12.80;;;8.30;;
52934;SDS011;38802;50.198;19.796;2023-10-09T03:55:58;8.00;;;6.40;;
52934;SDS011;38802;50.198;19.796;2023-10-09T03:58:27;9.40;;;7.20;;
52934;SDS011;38802;50.198;19.796;2023-10-09T04:01:06;14.80;;;8.00;;
52934;SDS011;38802;50.198;19.796;2023-10-09T04:03:36;8.60;;;6.40;;
52934;SDS011;38802;50.198;19.796;2023-10-09T04:06:05;12.60;;;7.20;;
52934;SDS011;38802;50.198;19.796;2023-10-09T04:08:36;9.50;;;6.60;;
52934;SDS011;38802;50.198;19.796;2023-10-09T04:11:07;12.90;;;7.30;;
52934;SDS011;38802;50.198;19.796;2023-10-09T04:13:44;12.00;;;7.10;;
52934;SDS011;38802;50.198;19.796;2023-10-09T04:16:17;15.90;;;8.40;;
52934;SDS011;38802;50.198;19.796;2023-10-09T04:18:58;8.00;;;6.00;;
52934;SDS011;38802;50.198;19.796;2023-10-09T04:21:39;11.10;;;6.90;;
52934;SDS011;38802;50.198;19.796;2023-10-09T04:24:09;10.40;;;6.10;;
52934;SDS011;38802;50.198;19.796;2023-10-09T04:26:41;11.10;;;8.10;;
52934;SDS011;38802;50.198;19.796;2023-10-09T04:29:13;7.80;;;6.30;;
52934;SDS011;38802;50.198;19.796;2023-10-09T04:31:55;11.80;;;7.00;;
52934;SDS011;38802;50.198;19.796;2023-10-09T04:34:24;9.00;;;6.00;;
52934;SDS011;38802;50.198;19.796;2023-10-09T04:36:56;12.60;;;6.00;;
52934;SDS011;38802;50.198;19.796;2023-10-09T04:39:45;13.90;;;7.20;;
52934;SDS011;38802;50.198;19.796;2023-10-09T04:42:17;10.20;;;6.00;;
52934;SDS011;38802;50.198;19.796;2023-10-09T04:44:48;8.60;;;6.60;;
52934;SDS011;38802;50.198;19.796;2023-10-09T04:47:33;8.90;;;5.90;;
52934;SDS011;38802;50.198;19.796;2023-10-09T04:50:06;8.50;;;6.10;;
52934;SDS011;38802;50.198;19.796;2023-10-09T04:52:40;9.80;;;5.90;;
52934;SDS011;38802;50.198;19.796;2023-10-09T04:55:08;6.40;;;5.60;;
52934;SDS011;38802;50.198;19.796;2023-10-09T04:57:40;7.70;;;6.00;;
52934;SDS011;38802;50.198;19.796;2023-10-09T05:00:09;6.30;;;4.70;;
52934;SDS011;38802;50.198;19.796;2023-10-09T05:02:59;6.70;;;5.30;;
52934;SDS011;38802;50.198;19.796;2023-10-09T05:05:40;5.30;;;4.80;;
52934;SDS011;38802;50.198;19.796;2023-10-09T05:08:09;8.70;;;4.90;;
52934;SDS011;38802;50.198;19.796;2023-10-09T05:10:51;7.60;;;5.40;;
52934;SDS011;38802;50.198;19.796;2023-10-09T05:13:27;5.90;;;3.90;;
52934;SDS011;38802;50.198;19.796;2023-10-09T05:16:16;6.90;;;4.20;;
52934;SDS011;38802;50.198;19.796;2023-10-09T05:19:01;7.10;;;4.30;;
52934;SDS011;38802;50.198;19.796;2023-10-09T05:21:36;6.80;;;4.80;;
52934;SDS011;38802;50.198;19.796;2023-10-09T05:24:12;4.10;;;3.70;;
52934;SDS011;38802;50.198;19.796;2023-10-09T05:29:21;5.70;;;4.00;;
52934;SDS011;38802;50.198;19.796;2023-10-09T05:31:57;12.90;;;7.30;;
52934;SDS011;38802;50.198;19.796;2023-10-09T05:34:31;21.70;;;10.00;;
52934;SDS011;38802;50.198;19.796;2023-10-09T05:37:19;12.40;;;6.00;;
52934;SDS011;38802;50.198;19.796;2023-10-09T05:39:53;12.40;;;7.00;;
52934;SDS011;38802;50.198;19.796;2023-10-09T05:42:29;5.10;;;3.20;;
52934;SDS011;38802;50.198;19.796;2023-10-09T05:47:47;9.90;;;3.80;;
52934;SDS011;38802;50.198;19.796;2023-10-09T05:50:31;5.90;;;3.30;;
52934;SDS011;38802;50.198;19.796;2023-10-09T05:53:02;5.30;;;3.10;;
52934;SDS011;38802;50.198;19.796;2023-10-09T05:55:31;4.70;;;3.10;;
52934;SDS011;38802;50.198;19.796;2023-10-09T05:58:19;5.20;;;3.40;;
52934;SDS011;38802;50.198;19.796;2023-10-09T06:01:06;6.40;;;3.30;;
52934;SDS011;38802;50.198;19.796;2023-10-09T06:03:53;5.10;;;3.10;;
52934;SDS011;38802;50.198;19.796;2023-10-09T06:06:32;4.10;;;3.30;;
52934;SDS011;38802;50.198;19.796;2023-10-09T06:09:02;5.30;;;3.20;;
52934;SDS011;38802;50.198;19.796;2023-10-09T06:11:51;4.50;;;3.10;;
52934;SDS011;38802;50.198;19.796;2023-10-09T06:14:23;4.40;;;2.90;;
52934;SDS011;38802;50.198;19.796;2023-10-09T06:16:57;5.80;;;3.50;;
52934;SDS011;38802;50.198;19.796;2023-10-09T06:19:30;3.00;;;2.60;;
52934;SDS011;38802;50.198;19.796;2023-10-09T06:21:59;4.70;;;3.10;;
52934;SDS011;38802;50.198;19.796;2023-10-09T06:24:40;4.30;;;2.60;;
52934;SDS011;38802;50.198;19.796;2023-10-09T06:27:11;5.00;;;3.30;;
52934;SDS011;38802;50.198;19.796;2023-10-09T06:29:41;4.70;;;3.80;;
52934;SDS011;38802;50.198;19.796;2023-10-09T06:32:13;3.90;;;2.90;;
52934;SDS011;38802;50.198;19.796;2023-10-09T06:35:02;5.50;;;3.60;;
52934;SDS011;38802;50.198;19.796;2023-10-09T06:38:06;3.60;;;2.90;;
52934;SDS011;38802;50.198;19.796;2023-10-09T06:40:50;4.30;;;2.70;;
52934;SDS011;38802;50.198;19.796;2023-10-09T06:43:34;4.00;;;3.40;;
52934;SDS011;38802;50.198;19.796;2023-10-09T06:46:04;3.80;;;3.30;;
52934;SDS011;38802;50.198;19.796;2023-10-09T06:48:51;3.70;;;2.60;;
52934;SDS011;38802;50.198;19.796;2023-10-09T06:51:25;4.40;;;3.20;;
52934;SDS011;38802;50.198;19.796;2023-10-09T06:53:54;3.70;;;2.90;;
52934;SDS011;38802;50.198;19.796;2023-10-09T06:56:24;3.80;;;2.70;;
52934;SDS011;38802;50.198;19.796;2023-10-09T06:59:00;5.30;;;2.80;;
52934;SDS011;38802;50.198;19.796;2023-10-09T07:01:43;5.40;;;2.90;;
52934;SDS011;38802;50.198;19.796;2023-10-09T07:04:12;4.40;;;2.80;;
52934;SDS011;38802;50.198;19.796;2023-10-09T07:06:48;4.40;;;2.10;;
52934;SDS011;38802;50.198;19.796;2023-10-09T07:09:19;3.40;;;2.60;;
52934;SDS011;38802;50.198;19.796;2023-10-09T07:11:48;3.40;;;2.30;;
52934;SDS011;38802;50.198;19.796;2023-10-09T07:14:18;6.00;;;2.10;;
52934;SDS011;38802;50.198;19.796;2023-10-09T07:17:04;2.60;;;2.20;;
52934;SDS011;38802;50.198;19.796;2023-10-09T07:19:53;7.50;;;2.80;;
52934;SDS011;38802;50.198;19.796;2023-10-09T07:22:21;5.10;;;2.10;;
52934;SDS011;38802;50.198;19.796;2023-10-09T07:24:52;5.20;;;2.60;;
52934;SDS011;38802;50.198;19.796;2023-10-09T07:30:18;2.80;;;2.00;;
52934;SDS011;38802;50.198;19.796;2023-10-09T07:33:01;1.70;;;1.40;;
52934;SDS011;38802;50.198;19.796;2023-10-09T07:35:48;3.70;;;1.40;;
52934;SDS011;38802;50.198;19.796;2023-10-09T07:38:25;2.60;;;1.70;;
52934;SDS011;38802;50.198;19.796;2023-10-09T07:40:57;1.80;;;1.60;;
52934;SDS011;38802;50.198;19.796;2023-10-09T07:43:37;2.30;;;1.20;;
52934;SDS011;38802;50.198;19.796;2023-10-09T07:46:14;1.50;;;1.40;;
52934;SDS011;38802;50.198;19.796;2023-10-09T07:49:20;2.50;;;1.60;;
52934;SDS011;38802;50.198;19.796;2023-10-09T07:51:54;2.10;;;1.90;;
52934;SDS011;38802;50.198;19.796;2023-10-09T07:54:24;3.30;;;2.20;;
52934;SDS011;38802;50.198;19.796;2023-10-09T07:57:00;4.50;;;2.70;;
52934;SDS011;38802;50.198;19.796;2023-10-09T07:59:37;4.00;;;2.50;;
52934;SDS011;38802;50.198;19.796;2023-10-09T08:02:09;3.50;;;2.40;;
52934;SDS011;38802;50.198;19.796;2023-10-09T08:04:44;3.60;;;2.60;;
52934;SDS011;38802;50.198;19.796;2023-10-09T08:07:21;2.70;;;2.40;;
52934;SDS011;38802;50.198;19.796;2023-10-09T08:10:21;4.20;;;2.90;;
52934;SDS011;38802;50.198;19.796;2023-10-09T08:12:50;2.90;;;2.70;;
52934;SDS011;38802;50.198;19.796;2023-10-09T08:15:18;3.00;;;2.60;;
52934;SDS011;38802;50.198;19.796;2023-10-09T08:17:51;2.90;;;2.50;;
52934;SDS011;38802;50.198;19.796;2023-10-09T08:20:31;3.40;;;2.80;;
52934;SDS011;38802;50.198;19.796;2023-10-09T08:23:19;3.40;;;2.70;;
52934;SDS011;38802;50.198;19.796;2023-10-09T08:26:03;3.60;;;2.80;;
52934;SDS011;38802;50.198;19.796;2023-10-09T08:28:41;3.70;;;2.90;;
52934;SDS011;38802;50.198;19.796;2023-10-09T08:31:17;4.10;;;3.00;;
52934;SDS011;38802;50.198;19.796;2023-10-09T08:34:14;3.10;;;2.80;;
52934;SDS011;38802;50.198;19.796;2023-10-09T08:36:57;3.50;;;2.40;;
52934;SDS011;38802;50.198;19.796;2023-10-09T08:39:26;6.70;;;2.10;;
52934;SDS011;38802;50.198;19.796;2023-10-09T08:41:55;3.70;;;2.30;;
52934;SDS011;38802;50.198;19.796;2023-10-09T08:44:26;2.60;;;2.20;;
52934;SDS011;38802;50.198;19.796;2023-10-09T08:46:57;2.30;;;1.70;;
52934;SDS011;38802;50.198;19.796;2023-10-09T08:49:25;2.60;;;2.20;;
52934;SDS011;38802;50.198;19.796;2023-10-09T08:51:56;2.30;;;1.90;;
52934;SDS011;38802;50.198;19.796;2023-10-09T08:54:31;4.50;;;1.50;;
52934;SDS011;38802;50.198;19.796;2023-10-09T08:57:02;3.00;;;1.80;;
52934;SDS011;38802;50.198;19.796;2023-10-09T08:59:30;1.20;;;1.10;;
52934;SDS011;38802;50.198;19.796;2023-10-09T09:02:00;2.40;;;1.60;;
52934;SDS011;38802;50.198;19.796;2023-10-09T09:04:37;2.00;;;1.70;;
52934;SDS011;38802;50.198;19.796;2023-10-09T09:09:54;1.80;;;1.30;;
52934;SDS011;38802;50.198;19.796;2023-10-09T09:12:25;1.50;;;1.40;;
52934;SDS011;38802;50.198;19.796;2023-10-09T09:14:58;1.50;;;1.20;;
52934;SDS011;38802;50.198;19.796;2023-10-09T09:17:33;1.30;;;1.10;;
52934;SDS011;38802;50.198;19.796;2023-10-09T09:20:18;1.40;;;1.30;;
52934;SDS011;38802;50.198;19.796;2023-10-09T09:23:02;2.80;;;1.50;;
52934;SDS011;38802;50.198;19.796;2023-10-09T09:25:43;1.70;;;1.60;;
52934;SDS011;38802;50.198;19.796;2023-10-09T09:28:16;1.90;;;1.20;;
52934;SDS011;38802;50.198;19.796;2023-10-09T09:30:50;1.80;;;1.20;;
52934;SDS011;38802;50.198;19.796;2023-10-09T09:33:23;1.60;;;1.50;;
52934;SDS011;38802;50.198;19.796;2023-10-09T09:36:01;1.40;;;1.20;;
52934;SDS011;38802;50.198;19.796;2023-10-09T09:38:32;1.30;;;1.20;;
52934;SDS011;38802;50.198;19.796;2023-10-09T09:43:53;1.80;;;1.40;;
52934;SDS011;38802;50.198;19.796;2023-10-09T09:46:24;2.80;;;1.90;;
52934;SDS011;38802;50.198;19.796;2023-10-09T09:49:03;1.70;;;1.30;;
52934;SDS011;38802;50.198;19.796;2023-10-09T09:51:45;1.30;;;1.20;;
52934;SDS011;38802;50.198;19.796;2023-10-09T09:54:14;2.80;;;1.40;;
52934;SDS011;38802;50.198;19.796;2023-10-09T09:56:44;2.40;;;2.00;;
52934;SDS011;38802;50.198;19.796;2023-10-09T09:59:19;1.90;;;1.70;;
52934;SDS011;38802;50.198;19.796;2023-10-09T10:01:56;1.90;;;1.50;;
52934;SDS011;38802;50.198;19.796;2023-10-09T10:04:35;1.90;;;1.40;;
52934;SDS011;38802;50.198;19.796;2023-10-09T10:07:06;1.70;;;1.60;;
52934;SDS011;38802;50.198;19.796;2023-10-09T10:09:41;2.10;;;1.70;;
52934;SDS011;38802;50.198;19.796;2023-10-09T10:12:13;1.90;;;1.50;;
52934;SDS011;38802;50.198;19.796;2023-10-09T10:20:32;1.50;;;1.40;;
52934;SDS011;38802;50.198;19.796;2023-10-09T10:23:20;4.00;;;1.40;;
52934;SDS011;38802;50.198;19.796;2023-10-09T10:25:54;2.40;;;2.00;;
52934;SDS011;38802;50.198;19.796;2023-10-09T10:28:29;3.40;;;1.80;;
52934;SDS011;38802;50.198;19.796;2023-10-09T10:31:08;3.10;;;1.50;;
52934;SDS011;38802;50.198;19.796;2023-10-09T10:36:39;1.40;;;1.20;;
52934;SDS011;38802;50.198;19.796;2023-10-09T10:39:10;1.70;;;1.20;;
52934;SDS011;38802;50.198;19.796;2023-10-09T10:44:25;0.90;;;0.90;;
52934;SDS011;38802;50.198;19.796;2023-10-09T10:47:07;1.90;;;1.40;;
52934;SDS011;38802;50.198;19.796;2023-10-09T10:49:51;1.50;;;1.00;;
52934;SDS011;38802;50.198;19.796;2023-10-09T10:52:26;8.60;;;2.80;;
52934;SDS011;38802;50.198;19.796;2023-10-09T10:55:18;3.70;;;1.30;;
52934;SDS011;38802;50.198;19.796;2023-10-09T10:57:58;2.00;;;1.40;;
52934;SDS011;38802;50.198;19.796;2023-10-09T11:00:38;1.60;;;1.50;;
52934;SDS011;38802;50.198;19.796;2023-10-09T11:03:25;2.40;;;1.50;;
52934;SDS011;38802;50.198;19.796;2023-10-09T11:06:12;2.50;;;1.70;;
52934;SDS011;38802;50.198;19.796;2023-10-09T11:08:45;2.50;;;1.70;;
52934;SDS011;38802;50.198;19.796;2023-10-09T11:11:24;1.80;;;1.50;;
52934;SDS011;38802;50.198;19.796;2023-10-09T11:14:09;2.00;;;1.70;;
52934;SDS011;38802;50.198;19.796;2023-10-09T11:16:51;2.80;;;1.90;;
52934;SDS011;38802;50.198;19.796;2023-10-09T11:19:26;1.90;;;1.70;;
52934;SDS011;38802;50.198;19.796;2023-10-09T11:21:55;2.30;;;2.00;;
52934;SDS011;38802;50.198;19.796;2023-10-09T11:24:33;2.10;;;1.90;;
52934;SDS011;38802;50.198;19.796;2023-10-09T11:27:05;2.00;;;1.60;;
52934;SDS011;38802;50.198;19.796;2023-10-09T11:29:35;2.30;;;1.50;;
52934;SDS011;38802;50.198;19.796;2023-10-09T11:32:17;6.50;;;2.00;;
52934;SDS011;38802;50.198;19.796;2023-10-09T11:34:47;1.80;;;1.40;;
52934;SDS011;38802;50.198;19.796;2023-10-09T11:37:23;4.10;;;2.00;;
52934;SDS011;38802;50.198;19.796;2023-10-09T11:39:58;2.80;;;2.50;;
52934;SDS011;38802;50.198;19.796;2023-10-09T11:42:29;2.30;;;1.80;;
52934;SDS011;38802;50.198;19.796;2023-10-09T11:45:20;2.20;;;1.70;;
52934;SDS011;38802;50.198;19.796;2023-10-09T11:47:57;1.90;;;1.80;;
52934;SDS011;38802;50.198;19.796;2023-10-09T11:50:52;1.60;;;1.50;;
52934;SDS011;38802;50.198;19.796;2023-10-09T11:53:43;2.60;;;2.30;;
52934;SDS011;38802;50.198;19.796;2023-10-09T11:56:22;2.90;;;2.50;;
52934;SDS011;38802;50.198;19.796;2023-10-09T11:58:54;2.90;;;2.60;;
52934;SDS011;38802;50.198;19.796;2023-10-09T12:01:26;2.10;;;1.90;;
52934;SDS011;38802;50.198;19.796;2023-10-09T12:04:03;2.30;;;2.10;;
52934;SDS011;38802;50.198;19.796;2023-10-09T12:06:32;2.30;;;1.90;;
52934;SDS011;38802;50.198;19.796;2023-10-09T12:09:00;1.80;;;1.50;;
52934;SDS011;38802;50.198;19.796;2023-10-09T12:11:28;1.70;;;1.60;;
52934;SDS011;38802;50.198;19.796;2023-10-09T12:13:57;2.20;;;2.00;;
52934;SDS011;38802;50.198;19.796;2023-10-09T12:16:28;1.70;;;1.60;;
52934;SDS011;38802;50.198;19.796;2023-10-09T12:19:01;1.80;;;1.70;;
52934;SDS011;38802;50.198;19.796;2023-10-09T12:21:30;2.10;;;1.60;;
52934;SDS011;38802;50.198;19.796;2023-10-09T12:24:03;2.40;;;1.60;;
52934;SDS011;38802;50.198;19.796;2023-10-09T12:29:08;1.80;;;1.70;;
52934;SDS011;38802;50.198;19.796;2023-10-09T12:31:39;2.00;;;1.90;;
52934;SDS011;38802;50.198;19.796;2023-10-09T12:34:07;2.40;;;2.00;;
52934;SDS011;38802;50.198;19.796;2023-10-09T12:36:36;1.50;;;1.40;;
52934;SDS011;38802;50.198;19.796;2023-10-09T12:39:05;1.90;;;1.80;;
52934;SDS011;38802;50.198;19.796;2023-10-09T12:41:35;1.90;;;1.70;;
52934;SDS011;38802;50.198;19.796;2023-10-09T12:44:09;2.10;;;1.80;;
52934;SDS011;38802;50.198;19.796;2023-10-09T12:46:47;2.60;;;2.40;;
52934;SDS011;38802;50.198;19.796;2023-10-09T12:49:22;4.30;;;2.90;;
52934;SDS011;38802;50.198;19.796;2023-10-09T12:51:53;4.10;;;2.20;;
52934;SDS011;38802;50.198;19.796;2023-10-09T12:54:22;2.30;;;2.10;;
52934;SDS011;38802;50.198;19.796;2023-10-09T12:56:55;3.10;;;2.80;;
52934;SDS011;38802;50.198;19.796;2023-10-09T12:59:25;4.80;;;4.30;;
52934;SDS011;38802;50.198;19.796;2023-10-09T13:01:53;2.60;;;2.20;;
52934;SDS011;38802;50.198;19.796;2023-10-09T13:04:26;3.70;;;2.90;;
52934;SDS011;38802;50.198;19.796;2023-10-09T13:07:00;3.70;;;2.40;;
52934;SDS011;38802;50.198;19.796;2023-10-09T13:09:32;3.90;;;3.20;;
52934;SDS011;38802;50.198;19.796;2023-10-09T13:12:04;2.20;;;1.90;;
52934;SDS011;38802;50.198;19.796;2023-10-09T13:14:33;2.40;;;2.20;;
52934;SDS011;38802;50.198;19.796;2023-10-09T13:17:03;2.00;;;1.80;;
52934;SDS011;38802;50.198;19.796;2023-10-09T13:19:38;3.40;;;2.30;;
52934;SDS011;38802;50.198;19.796;2023-10-09T13:22:07;3.10;;;2.90;;
52934;SDS011;38802;50.198;19.796;2023-10-09T13:24:41;3.40;;;3.20;;
52934;SDS011;38802;50.198;19.796;2023-10-09T13:27:10;3.90;;;3.60;;
52934;SDS011;38802;50.198;19.796;2023-10-09T13:29:39;3.00;;;2.80;;
52934;SDS011;38802;50.198;19.796;2023-10-09T13:32:08;2.40;;;2.30;;
52934;SDS011;38802;50.198;19.796;2023-10-09T13:34:43;3.10;;;2.80;;
52934;SDS011;38802;50.198;19.796;2023-10-09T13:37:14;2.80;;;2.50;;
52934;SDS011;38802;50.198;19.796;2023-10-09T13:39:47;3.00;;;2.70;;
52934;SDS011;38802;50.198;19.796;2023-10-09T13:42:21;3.10;;;2.80;;
52934;SDS011;38802;50.198;19.796;2023-10-09T13:44:54;4.10;;;3.80;;
52934;SDS011;38802;50.198;19.796;2023-10-09T13:47:22;3.70;;;3.40;;
52934;SDS011;38802;50.198;19.796;2023-10-09T13:49:57;3.20;;;2.90;;
52934;SDS011;38802;50.198;19.796;2023-10-09T13:52:27;3.60;;;3.30;;
52934;SDS011;38802;50.198;19.796;2023-10-09T13:54:55;3.90;;;3.50;;
52934;SDS011;38802;50.198;19.796;2023-10-09T13:57:26;2.70;;;2.50;;
52934;SDS011;38802;50.198;19.796;2023-10-09T13:59:59;3.10;;;2.80;;
52934;SDS011;38802;50.198;19.796;2023-10-09T14:02:28;4.00;;;3.30;;
52934;SDS011;38802;50.198;19.796;2023-10-09T14:04:57;3.40;;;3.20;;
52934;SDS011;38802;50.198;19.796;2023-10-09T14:07:31;3.60;;;3.40;;
52934;SDS011;38802;50.198;19.796;2023-10-09T14:10:02;4.10;;;3.60;;
52934;SDS011;38802;50.198;19.796;2023-10-09T14:12:36;4.40;;;3.60;;
52934;SDS011;38802;50.198;19.796;2023-10-09T14:15:16;3.90;;;3.60;;
52934;SDS011;38802;50.198;19.796;2023-10-09T14:17:46;4.40;;;3.00;;
52934;SDS011;38802;50.198;19.796;2023-10-09T14:20:15;3.30;;;3.00;;
52934;SDS011;38802;50.198;19.796;2023-10-09T14:23:02;3.70;;;3.40;;
52934;SDS011;38802;50.198;19.796;2023-10-09T14:25:35;4.10;;;3.70;;
52934;SDS011;38802;50.198;19.796;2023-10-09T14:28:08;3.20;;;2.90;;
52934;SDS011;38802;50.198;19.796;2023-10-09T14:30:37;3.60;;;3.20;;
52934;SDS011;38802;50.198;19.796;2023-10-09T14:33:11;4.10;;;3.80;;
52934;SDS011;38802;50.198;19.796;2023-10-09T14:35:42;7.80;;;5.90;;
52934;SDS011;38802;50.198;19.796;2023-10-09T14:38:12;7.20;;;5.70;;
52934;SDS011;38802;50.198;19.796;2023-10-09T14:40:44;5.40;;;4.30;;
52934;SDS011;38802;50.198;19.796;2023-10-09T14:43:13;5.00;;;4.50;;
52934;SDS011;38802;50.198;19.796;2023-10-09T14:45:48;10.10;;;9.10;;
52934;SDS011;38802;50.198;19.796;2023-10-09T14:48:17;6.90;;;4.00;;
52934;SDS011;38802;50.198;19.796;2023-10-09T14:50:53;5.20;;;4.80;;
52934;SDS011;38802;50.198;19.796;2023-10-09T14:53:28;9.60;;;4.20;;
52934;SDS011;38802;50.198;19.796;2023-10-09T14:55:57;3.70;;;3.40;;
52934;SDS011;38802;50.198;19.796;2023-10-09T14:58:25;22.70;;;20.20;;
52934;SDS011;38802;50.198;19.796;2023-10-09T15:00:53;42.90;;;34.60;;
52934;SDS011;38802;50.198;19.796;2023-10-09T15:03:22;65.40;;;52.70;;
52934;SDS011;38802;50.198;19.796;2023-10-09T15:05:50;9.50;;;8.60;;
52934;SDS011;38802;50.198;19.796;2023-10-09T15:08:19;8.80;;;7.80;;
52934;SDS011;38802;50.198;19.796;2023-10-09T15:10:47;11.70;;;10.50;;
52934;SDS011;38802;50.198;19.796;2023-10-09T15:13:17;51.00;;;38.80;;
52934;SDS011;38802;50.198;19.796;2023-10-09T15:15:45;94.20;;;75.70;;
52934;SDS011;38802;50.198;19.796;2023-10-09T15:18:19;80.70;;;60.80;;
52934;SDS011;38802;50.198;19.796;2023-10-09T15:20:49;125.10;;;70.30;;
52934;SDS011;38802;50.198;19.796;2023-10-09T15:23:19;66.90;;;38.30;;
52934;SDS011;38802;50.198;19.796;2023-10-09T15:25:47;48.10;;;31.80;;
52934;SDS011;38802;50.198;19.796;2023-10-09T15:28:21;16.50;;;13.80;;
52934;SDS011;38802;50.198;19.796;2023-10-09T15:30:50;23.10;;;16.60;;
52934;SDS011;38802;50.198;19.796;2023-10-09T15:33:18;11.20;;;10.10;;
52934;SDS011;38802;50.198;19.796;2023-10-09T15:35:48;5.60;;;5.10;;
52934;SDS011;38802;50.198;19.796;2023-10-09T15:38:19;3.70;;;3.40;;
52934;SDS011;38802;50.198;19.796;2023-10-09T15:40:48;3.30;;;3.10;;
52934;SDS011;38802;50.198;19.796;2023-10-09T15:43:16;3.10;;;2.90;;
52934;SDS011;38802;50.198;19.796;2023-10-09T15:45:44;78.10;;;26.90;;